createdAt,value
2023-02-01T00:01:23.352Z,96894.52
2023-02-01T00:03:51.537Z,96894.60
2023-02-01T00:06:19.804Z,96894.54
2023-02-01T00:08:47.880Z,96896.02
2023-02-01T00:11:16.275Z,96889.95
2023-02-01T00:13:44.286Z,96894.08
2023-02-01T00:16:17.440Z,96886.18
2023-02-01T00:18:47.056Z,96886.77
2023-02-01T00:21:17.365Z,96886.85
2023-02-01T00:23:46.481Z,96879.86
2023-02-01T00:26:31.403Z,96880.80
2023-02-01T00:29:00.043Z,96876.52
2023-02-01T00:31:29.664Z,96876.27
2023-02-01T00:33:58.125Z,96877.77
2023-02-01T00:36:26.141Z,96881.09
2023-02-01T00:38:54.189Z,96882.88
2023-02-01T00:41:23.567Z,96888.49
2023-02-01T00:43:52.222Z,96888.60
2023-02-01T00:46:21.359Z,96885.30
2023-02-01T00:48:50.784Z,96885.75
2023-02-01T00:51:22.174Z,96878.73
2023-02-01T00:53:51.320Z,96876.46
2023-02-01T00:56:19.918Z,96871.59
2023-02-01T00:58:48.322Z,96866.38
2023-02-01T01:01:23.255Z,96857.27
2023-02-01T01:04:02.699Z,96850.89
2023-02-01T01:06:33.409Z,96840.46
2023-02-01T01:09:04.850Z,96828.89
2023-02-01T01:11:35.623Z,96829.52
2023-02-01T01:14:04.668Z,96832.77
2023-02-01T01:16:34.315Z,96832.15
2023-02-01T01:19:02.907Z,96826.92
2023-02-01T01:21:31.604Z,96831.26
2023-02-01T01:24:00.073Z,96828.59
2023-02-01T01:26:30.215Z,96827.59
2023-02-01T01:29:00.176Z,96826.09
2023-02-01T01:31:29.155Z,96820.67
2023-02-01T01:33:59.542Z,96819.05
2023-02-01T01:36:28.950Z,96817.63
2023-02-01T01:38:57.231Z,96817.99
2023-02-01T01:41:30.721Z,96821.69
2023-02-01T01:44:06.614Z,96822.52
2023-02-01T01:46:41.894Z,96829.30
2023-02-01T01:49:10.503Z,96830.96
2023-02-01T01:51:43.621Z,96832.05
2023-02-01T01:54:22.723Z,96836.52
2023-02-01T01:56:56.640Z,96833.95
2023-02-01T01:59:25.603Z,96827.88
2023-02-01T02:01:53.763Z,96832.90
2023-02-01T02:04:22.753Z,96835.05
2023-02-01T02:07:09.508Z,96839.77
2023-02-01T02:09:38.523Z,96842.08
2023-02-01T02:12:06.951Z,96839.89
2023-02-01T02:14:35.386Z,96835.80
2023-02-01T02:17:22.887Z,96840.20
2023-02-01T02:20:06.219Z,96840.06
2023-02-01T02:23:27.860Z,96836.63
2023-02-01T02:26:07.867Z,96835.48
2023-02-01T02:29:02.347Z,96835.33
2023-02-01T02:31:59.908Z,96833.80
2023-02-01T02:34:41.245Z,96825.29
2023-02-01T02:37:18.365Z,96815.61
2023-02-01T02:40:04.133Z,96809.80
2023-02-01T02:43:00.057Z,96809.64
2023-02-01T02:45:57.683Z,96803.89
2023-02-01T02:48:47.467Z,96796.60
2023-02-01T02:51:47.810Z,96792.71
2023-02-01T02:54:47.983Z,96790.39
2023-02-01T02:57:47.773Z,96791.70
2023-02-01T03:00:38.087Z,96791.59
2023-02-01T03:03:26.052Z,96788.73
2023-02-01T03:05:54.414Z,96792.38
2023-02-01T03:08:24.769Z,96796.06
2023-02-01T03:11:08.951Z,96795.59
2023-02-01T03:13:46.777Z,96789.30
2023-02-01T03:16:33.119Z,96788.64
2023-02-01T03:19:05.057Z,96787.95
2023-02-01T03:21:41.820Z,96779.31
2023-02-01T03:24:22.398Z,96776.56
2023-02-01T03:26:56.776Z,96774.31
2023-02-01T03:29:39.160Z,96766.10
2023-02-01T03:32:07.546Z,96762.23
2023-02-01T03:34:36.123Z,96756.70
2023-02-01T03:37:09.543Z,96752.33
2023-02-01T03:39:59.396Z,96749.88
2023-02-01T03:42:44.831Z,96751.13
2023-02-01T03:45:28.222Z,96755.84
2023-02-01T03:48:01.303Z,96750.85
2023-02-01T03:50:34.517Z,96748.92
2023-02-01T03:53:10.542Z,96746.80
2023-02-01T03:55:39.545Z,96748.30
2023-02-01T03:58:12.901Z,96740.35
2023-02-01T04:00:45.046Z,96733.27
2023-02-01T04:03:13.493Z,96733.02
2023-02-01T04:05:41.679Z,96728.65
2023-02-01T04:08:10.485Z,96727.73
2023-02-01T04:10:38.851Z,96735.27
2023-02-01T04:13:07.739Z,96737.20
2023-02-01T04:15:36.042Z,96734.63
2023-02-01T04:18:04.516Z,96736.04
2023-02-01T04:20:32.891Z,96740.90
2023-02-01T04:23:03.533Z,96743.20
2023-02-01T04:25:32.385Z,96741.38
2023-02-01T04:28:00.525Z,96740.30
2023-02-01T04:30:28.941Z,96747.13
2023-02-01T04:32:57.036Z,96748.98
2023-02-01T04:35:25.350Z,96748.80
2023-02-01T04:37:53.383Z,96751.13
2023-02-01T04:40:21.709Z,96749.75
2023-02-01T04:42:49.984Z,96749.78
2023-02-01T04:45:18.368Z,96748.86
2023-02-01T04:47:46.649Z,96753.86
2023-02-01T04:50:14.723Z,96763.91
2023-02-01T04:52:42.746Z,96766.45
2023-02-01T04:55:11.186Z,96766.23
2023-02-01T04:57:41.295Z,96768.46
2023-02-01T05:00:10.756Z,96767.21
2023-02-01T05:02:38.901Z,96771.56
2023-02-01T05:05:07.473Z,96762.98
2023-02-01T05:07:35.865Z,96755.63
2023-02-01T05:10:04.948Z,96754.27
2023-02-01T05:12:51.967Z,96754.56
2023-02-01T05:15:20.047Z,96758.44
2023-02-01T05:17:48.216Z,96764.69
2023-02-01T05:20:16.608Z,96760.25
2023-02-01T05:22:44.693Z,96757.71
2023-02-01T05:25:13.022Z,96758.32
2023-02-01T05:27:41.344Z,96760.08
2023-02-01T05:30:10.653Z,96760.10
2023-02-01T05:32:38.741Z,96765.73
2023-02-01T05:35:07.525Z,96763.50
2023-02-01T05:37:35.704Z,96755.60
2023-02-01T05:40:07.330Z,96754.31
2023-02-01T05:42:35.585Z,96751.63
2023-02-01T05:45:06.163Z,96746.71
2023-02-01T05:47:34.452Z,96746.64
2023-02-01T05:50:02.941Z,96753.45
2023-02-01T05:52:31.417Z,96758.00
2023-02-01T05:54:59.372Z,96756.30
2023-02-01T05:57:27.427Z,96761.20
2023-02-01T05:59:55.440Z,96764.06
2023-02-01T06:02:25.314Z,96765.36
2023-02-01T06:04:53.438Z,96760.81
2023-02-01T06:07:21.481Z,96765.56
2023-02-01T06:09:49.591Z,96768.95
2023-02-01T06:12:17.778Z,96767.87
2023-02-01T06:14:46.372Z,96769.03
2023-02-01T06:17:14.545Z,96768.30
2023-02-01T06:19:42.564Z,96774.57
2023-02-01T06:22:10.590Z,96783.38
2023-02-01T06:24:38.676Z,96787.92
2023-02-01T06:27:06.849Z,96791.48
2023-02-01T06:29:34.849Z,96789.86
2023-02-01T06:32:04.169Z,96792.79
2023-02-01T06:34:32.405Z,96793.70
2023-02-01T06:37:00.487Z,96798.35
2023-02-01T06:39:29.477Z,96799.89
2023-02-01T06:41:57.460Z,96796.45
2023-02-01T06:44:25.728Z,96799.15
2023-02-01T06:46:53.826Z,96800.81
2023-02-01T06:49:22.409Z,96795.83
2023-02-01T06:51:50.776Z,96798.86
2023-02-01T06:54:19.473Z,96801.16
2023-02-01T06:56:47.547Z,96795.87
2023-02-01T06:59:17.383Z,96797.72
2023-02-01T07:01:45.681Z,96796.04
2023-02-01T07:04:14.030Z,96798.21
2023-02-01T07:06:42.520Z,96795.93
2023-02-01T07:09:10.629Z,96799.99
2023-02-01T07:11:42.045Z,96801.98
2023-02-01T07:14:11.559Z,96804.79
2023-02-01T07:16:40.171Z,96805.08
2023-02-01T07:19:08.761Z,96809.61
2023-02-01T07:21:37.114Z,96809.36
2023-02-01T07:24:05.814Z,96803.52
2023-02-01T07:26:33.989Z,96799.91
2023-02-01T07:29:02.151Z,96805.89
2023-02-01T07:31:30.361Z,96810.98
2023-02-01T07:33:59.850Z,96806.17
2023-02-01T07:36:28.030Z,96810.61
2023-02-01T07:38:56.906Z,96816.20
2023-02-01T07:41:25.051Z,96816.02
2023-02-01T07:43:56.863Z,96813.41
2023-02-01T07:46:25.059Z,96812.76
2023-02-01T07:48:53.239Z,96811.71
2023-02-01T07:51:21.250Z,96809.98
2023-02-01T07:53:49.579Z,96811.01
2023-02-01T07:56:20.421Z,96814.65
2023-02-01T07:58:53.006Z,96814.80
2023-02-01T08:01:26.702Z,96816.05
2023-02-01T08:04:00.662Z,96816.95
2023-02-01T08:06:32.072Z,96814.59
2023-02-01T08:09:00.447Z,96818.40
2023-02-01T08:11:28.615Z,96814.36
2023-02-01T08:13:56.727Z,96812.04
2023-02-01T08:16:25.522Z,96813.69
2023-02-01T08:18:55.245Z,96814.76
2023-02-01T08:21:49.762Z,96810.70
2023-02-01T08:24:17.705Z,96816.37
2023-02-01T08:26:45.712Z,96814.34
2023-02-01T08:29:14.934Z,96808.89
2023-02-01T08:31:44.363Z,96812.95
2023-02-01T08:34:13.321Z,96815.12
2023-02-01T08:36:42.078Z,96823.80
2023-02-01T08:39:12.151Z,96830.58
2023-02-01T08:41:41.046Z,96842.13
2023-02-01T08:44:09.239Z,96846.23
2023-02-01T08:46:37.369Z,96847.23
2023-02-01T08:49:05.530Z,96847.51
2023-02-01T08:51:33.465Z,96845.60
2023-02-01T08:54:02.461Z,96847.73
2023-02-01T08:56:30.548Z,96854.65
2023-02-01T08:58:58.707Z,96852.55
2023-02-01T09:01:27.022Z,96849.46
2023-02-01T09:03:55.458Z,96849.40
2023-02-01T09:06:23.752Z,96852.63
2023-02-01T09:08:52.756Z,96844.75
2023-02-01T09:11:20.831Z,96845.73
2023-02-01T09:13:49.949Z,96847.90
2023-02-01T09:16:18.177Z,96846.35
2023-02-01T09:18:55.988Z,96844.91
2023-02-01T09:21:34.640Z,96841.76
2023-02-01T09:24:03.011Z,96843.84
2023-02-01T09:26:32.918Z,96845.17
2023-02-01T09:29:02.166Z,96841.22
2023-02-01T09:31:31.590Z,96839.98
2023-02-01T09:33:59.696Z,96838.58
2023-02-01T09:36:30.208Z,96830.61
2023-02-01T09:39:00.481Z,96823.59
2023-02-01T09:41:43.849Z,96828.85
2023-02-01T09:44:44.821Z,96834.44
2023-02-01T09:47:20.267Z,96836.86
2023-02-01T09:50:00.642Z,96835.85
2023-02-01T09:52:44.258Z,96827.77
2023-02-01T09:55:36.388Z,96830.61
2023-02-01T09:58:14.492Z,96826.10
2023-02-01T10:00:52.052Z,96824.89
2023-02-01T10:03:21.312Z,96830.80
2023-02-01T10:06:17.702Z,96835.34
2023-02-01T10:09:17.978Z,96841.73
2023-02-01T10:11:58.166Z,96841.52
2023-02-01T10:14:47.629Z,96840.45
2023-02-01T10:17:21.603Z,96836.15
2023-02-01T10:20:15.915Z,96831.84
2023-02-01T10:23:10.712Z,96830.05
2023-02-01T10:25:42.560Z,96829.60
2023-02-01T10:28:17.427Z,96827.83
2023-02-01T10:30:48.859Z,96829.78
2023-02-01T10:33:42.397Z,96830.73
2023-02-01T10:36:20.912Z,96825.86
2023-02-01T10:38:49.203Z,96825.62
2023-02-01T10:41:22.300Z,96822.14
2023-02-01T10:43:55.692Z,96824.46
2023-02-01T10:46:25.054Z,96825.94
2023-02-01T10:48:56.748Z,96827.03
2023-02-01T10:51:49.095Z,96833.23
2023-02-01T10:54:21.582Z,96827.82
2023-02-01T10:56:51.038Z,96825.29
2023-02-01T10:59:26.417Z,96827.91
2023-02-01T11:02:06.552Z,96832.59
2023-02-01T11:04:39.047Z,96831.61
2023-02-01T11:07:26.969Z,96830.05
2023-02-01T11:09:57.528Z,96830.21
2023-02-01T11:12:38.364Z,96833.78
2023-02-01T11:15:25.763Z,96833.76
2023-02-01T11:17:57.489Z,96835.59
2023-02-01T11:20:42.913Z,96832.80
2023-02-01T11:23:17.333Z,96833.13
2023-02-01T11:26:00.250Z,96826.05
2023-02-01T11:28:32.958Z,96823.96
2023-02-01T11:31:05.407Z,96821.20
2023-02-01T11:33:37.974Z,96813.96
2023-02-01T11:36:17.772Z,96818.85
2023-02-01T11:39:18.553Z,96818.79
2023-02-01T11:42:06.689Z,96815.59
2023-02-01T11:44:38.549Z,96817.51
2023-02-01T11:47:29.350Z,96813.98
2023-02-01T11:50:00.189Z,96807.55
2023-02-01T11:52:28.205Z,96803.59
2023-02-01T11:55:14.793Z,96803.99
2023-02-01T11:58:13.538Z,96804.75
2023-02-01T12:00:51.426Z,96802.98
2023-02-01T12:03:53.561Z,96804.94
2023-02-01T12:06:30.987Z,96807.90
2023-02-01T12:09:04.853Z,96802.34
2023-02-01T12:11:42.062Z,96799.52
2023-02-01T12:14:32.137Z,96795.54
2023-02-01T12:17:31.242Z,96790.91
2023-02-01T12:20:08.600Z,96784.78
2023-02-01T12:22:43.764Z,96776.30
2023-02-01T12:25:33.723Z,96776.54
2023-02-01T12:28:04.568Z,96773.90
2023-02-01T12:30:44.687Z,96771.94
2023-02-01T12:33:44.519Z,96761.94
2023-02-01T12:36:27.222Z,96760.30
2023-02-01T12:39:07.455Z,96752.68
2023-02-01T12:41:54.496Z,96749.45
2023-02-01T12:44:44.760Z,96748.62
2023-02-01T12:47:23.487Z,96749.35
2023-02-01T12:50:37.937Z,96747.52
2023-02-01T12:53:13.168Z,96745.90
2023-02-01T12:55:51.486Z,96752.02
2023-02-01T12:58:33.067Z,96751.38
2023-02-01T13:01:06.387Z,96751.92
2023-02-01T13:04:08.727Z,96751.49
2023-02-01T13:06:45.863Z,96752.55
2023-02-01T13:09:16.635Z,96750.05
2023-02-01T13:11:47.512Z,96750.39
2023-02-01T13:14:30.895Z,96749.05
2023-02-01T13:17:25.684Z,96750.64
2023-02-01T13:20:15.402Z,96746.10
2023-02-01T13:23:13.991Z,96747.12
2023-02-01T13:25:54.591Z,96747.50
2023-02-01T13:28:57.050Z,96738.91
2023-02-01T13:31:44.035Z,96735.94
2023-02-01T13:34:58.601Z,96734.98
2023-02-01T13:37:50.510Z,96733.64
2023-02-01T13:40:23.301Z,96728.71
2023-02-01T13:43:01.544Z,96723.66
2023-02-01T13:45:33.373Z,96721.34
2023-02-01T13:48:05.647Z,96715.59
2023-02-01T13:50:39.811Z,96711.59
2023-02-01T13:53:15.535Z,96714.60
2023-02-01T13:55:47.061Z,96712.14
2023-02-01T13:58:33.650Z,96717.66
2023-02-01T14:01:23.711Z,96710.06
2023-02-01T14:04:00.720Z,96711.50
2023-02-01T14:06:28.898Z,96706.62
2023-02-01T14:09:09.525Z,96708.55
2023-02-01T14:11:40.024Z,96705.66
2023-02-01T14:14:17.798Z,96712.73
2023-02-01T14:16:55.173Z,96708.84
2023-02-01T14:19:28.756Z,96704.85
2023-02-01T14:22:02.309Z,96707.52
2023-02-01T14:24:32.096Z,96701.48
2023-02-01T14:27:15.631Z,96697.71
2023-02-01T14:29:59.147Z,96700.66
2023-02-01T14:32:34.939Z,96702.10
2023-02-01T14:35:08.857Z,96701.59
2023-02-01T14:37:39.836Z,96704.19
2023-02-01T14:40:14.496Z,96698.77
2023-02-01T14:42:42.454Z,96690.23
2023-02-01T14:45:20.239Z,96691.80
2023-02-01T14:48:06.996Z,96692.16
2023-02-01T14:50:43.424Z,96692.13
2023-02-01T14:53:11.797Z,96691.46
2023-02-01T14:55:50.273Z,96692.83
2023-02-01T14:58:46.839Z,96690.79
2023-02-01T15:01:30.557Z,96695.92
2023-02-01T15:04:05.720Z,96698.70
2023-02-01T15:06:43.920Z,96701.35
2023-02-01T15:09:38.224Z,96701.70
2023-02-01T15:12:12.415Z,96702.89
2023-02-01T15:14:50.370Z,96694.01
2023-02-01T15:17:24.655Z,96694.34
2023-02-01T15:20:00.190Z,96685.42
2023-02-01T15:22:30.765Z,96686.90
2023-02-01T15:25:02.274Z,96690.31
2023-02-01T15:27:38.531Z,96688.13
2023-02-01T15:30:19.092Z,96682.32
2023-02-01T15:32:48.186Z,96682.31
2023-02-01T15:35:39.069Z,96685.56
2023-02-01T15:38:43.426Z,96682.34
2023-02-01T15:41:18.844Z,96682.73
2023-02-01T15:44:07.988Z,96678.52
2023-02-01T15:46:40.396Z,96680.73
2023-02-01T15:49:21.958Z,96687.49
2023-02-01T15:51:50.836Z,96696.23
2023-02-01T15:54:23.573Z,96703.27
2023-02-01T15:56:54.341Z,96705.77
2023-02-01T15:59:45.086Z,96707.77
2023-02-01T16:02:35.661Z,96710.71
2023-02-01T16:05:05.317Z,96705.63
2023-02-01T16:07:35.196Z,96703.56
2023-02-01T16:10:25.888Z,96700.83
2023-02-01T16:12:58.757Z,96695.75
2023-02-01T16:15:31.036Z,96693.54
2023-02-01T16:17:59.108Z,96692.58
2023-02-01T16:20:27.389Z,96698.81
2023-02-01T16:22:55.429Z,96696.72
2023-02-01T16:25:23.995Z,96690.24
2023-02-01T16:27:52.330Z,96692.67
2023-02-01T16:30:24.220Z,96699.90
2023-02-01T16:32:58.711Z,96697.75
2023-02-01T16:35:36.682Z,96696.66
2023-02-01T16:38:13.233Z,96704.58
2023-02-01T16:40:42.810Z,96700.78
2023-02-01T16:43:24.850Z,96694.17
2023-02-01T16:45:55.603Z,96700.40
2023-02-01T16:48:30.687Z,96698.27
2023-02-01T16:51:03.919Z,96699.02
2023-02-01T16:53:36.507Z,96701.82
2023-02-01T16:56:17.630Z,96703.71
2023-02-01T16:58:46.508Z,96703.95
2023-02-01T17:01:16.581Z,96697.10
2023-02-01T17:03:46.635Z,96693.33
2023-02-01T17:06:20.823Z,96689.20
2023-02-01T17:08:55.487Z,96691.57
2023-02-01T17:11:23.528Z,96692.95
2023-02-01T17:13:51.941Z,96693.14
2023-02-01T17:16:20.008Z,96696.60
2023-02-01T17:18:58.034Z,96699.77
2023-02-01T17:21:28.925Z,96702.74
2023-02-01T17:24:00.091Z,96700.55
2023-02-01T17:26:28.611Z,96697.55
2023-02-01T17:28:58.111Z,96701.98
2023-02-01T17:31:26.332Z,96701.55
2023-02-01T17:33:54.464Z,96704.99
2023-02-01T17:36:22.743Z,96709.98
2023-02-01T17:39:03.639Z,96711.89
2023-02-01T17:41:33.965Z,96717.59
2023-02-01T17:44:03.145Z,96720.38
2023-02-01T17:46:32.265Z,96721.94
2023-02-01T17:49:01.531Z,96723.67
2023-02-01T17:51:31.087Z,96725.04
2023-02-01T17:53:59.243Z,96719.37
2023-02-01T17:56:28.648Z,96716.27
2023-02-01T17:58:56.724Z,96709.25
2023-02-01T18:01:25.662Z,96711.50
2023-02-01T18:03:53.658Z,96708.25
2023-02-01T18:06:31.274Z,96703.30
2023-02-01T18:08:59.260Z,96703.49
2023-02-01T18:11:27.546Z,96711.70
2023-02-01T18:13:55.623Z,96708.45
2023-02-01T18:16:30.184Z,96710.02
2023-02-01T18:19:02.007Z,96709.54
2023-02-01T18:21:34.101Z,96707.77
2023-02-01T18:24:02.446Z,96700.24
2023-02-01T18:26:30.694Z,96695.61
2023-02-01T18:28:58.807Z,96690.61
2023-02-01T18:31:29.987Z,96686.80
2023-02-01T18:33:59.888Z,96684.90
2023-02-01T18:36:30.666Z,96684.20
2023-02-01T18:38:58.720Z,96677.52
2023-02-01T18:41:27.090Z,96681.41
2023-02-01T18:43:55.463Z,96676.66
2023-02-01T18:46:23.964Z,96670.70
2023-02-01T18:48:52.000Z,96671.79
2023-02-01T18:51:21.070Z,96677.44
2023-02-01T18:53:49.922Z,96678.85
2023-02-01T18:56:19.834Z,96679.70
2023-02-01T18:58:48.012Z,96676.52
2023-02-01T19:01:20.179Z,96675.50
2023-02-01T19:03:53.408Z,96676.88
2023-02-01T19:06:40.392Z,96669.86
2023-02-01T19:09:08.462Z,96674.48
2023-02-01T19:11:36.846Z,96682.40
2023-02-01T19:14:04.919Z,96684.95
2023-02-01T19:16:36.275Z,96679.84
2023-02-01T19:19:04.453Z,96683.04
2023-02-01T19:21:32.832Z,96685.73
2023-02-01T19:24:01.021Z,96681.25
2023-02-01T19:26:29.108Z,96683.29
2023-02-01T19:28:58.900Z,96687.20
2023-02-01T19:31:27.607Z,96691.82
2023-02-01T19:33:55.879Z,96691.96
2023-02-01T19:36:26.913Z,96693.20
2023-02-01T19:38:55.128Z,96694.22
2023-02-01T19:41:23.479Z,96692.94
2023-02-01T19:43:51.433Z,96686.98
2023-02-01T19:46:19.750Z,96684.71
2023-02-01T19:48:48.017Z,96689.02
2023-02-01T19:51:16.095Z,96688.19
2023-02-01T19:53:44.578Z,96690.15
2023-02-01T19:56:12.850Z,96697.00
2023-02-01T19:58:41.035Z,96697.88
2023-02-01T20:01:08.355Z,96693.78
2023-02-01T20:03:36.638Z,96694.14
2023-02-01T20:06:07.416Z,96696.34
2023-02-01T20:08:35.646Z,96695.52
2023-02-01T20:11:07.068Z,96688.33
2023-02-01T20:13:35.922Z,96686.39
2023-02-01T20:16:04.502Z,96683.27
2023-02-01T20:18:34.017Z,96679.85
2023-02-01T20:21:02.802Z,96676.83
2023-02-01T20:23:31.199Z,96676.34
2023-02-01T20:26:05.190Z,96669.30
2023-02-01T20:28:34.028Z,96666.52
2023-02-01T20:31:03.043Z,96667.72
2023-02-01T20:33:31.626Z,96667.92
2023-02-01T20:36:00.522Z,96666.08
2023-02-01T20:38:29.009Z,96668.98
2023-02-01T20:41:05.376Z,96668.02
2023-02-01T20:43:34.050Z,96665.80
2023-02-01T20:46:03.068Z,96663.55
2023-02-01T20:48:31.340Z,96663.27
2023-02-01T20:51:00.552Z,96658.02
2023-02-01T20:53:29.242Z,96655.15
2023-02-01T20:55:58.584Z,96659.25
2023-02-01T20:58:27.233Z,96654.29
2023-02-01T21:00:55.350Z,96652.19
2023-02-01T21:03:24.114Z,96650.11
2023-02-01T21:05:54.836Z,96645.64
2023-02-01T21:08:23.735Z,96649.23
2023-02-01T21:10:56.732Z,96654.52
2023-02-01T21:13:26.382Z,96654.72
2023-02-01T21:15:54.621Z,96665.54
2023-02-01T21:18:23.721Z,96663.90
2023-02-01T21:20:52.007Z,96672.21
2023-02-01T21:23:20.047Z,96670.42
2023-02-01T21:25:48.360Z,96668.95
2023-02-01T21:28:16.439Z,96665.56
2023-02-01T21:30:44.500Z,96671.11
2023-02-01T21:33:12.598Z,96669.17
2023-02-01T21:35:42.207Z,96668.23
2023-02-01T21:38:10.684Z,96670.35
2023-02-01T21:40:38.768Z,96671.67
2023-02-01T21:43:06.848Z,96667.46
2023-02-01T21:45:36.047Z,96663.08
2023-02-01T21:48:07.198Z,96661.31
2023-02-01T21:50:35.559Z,96662.51
2023-02-01T21:53:03.656Z,96665.58
2023-02-01T21:55:31.623Z,96663.38
2023-02-01T21:57:59.803Z,96661.52
2023-02-01T22:00:28.093Z,96664.29
2023-02-01T22:02:56.051Z,96663.79
2023-02-01T22:05:24.541Z,96660.42
2023-02-01T22:07:53.046Z,96664.58
2023-02-01T22:10:21.512Z,96664.30
2023-02-01T22:12:49.587Z,96669.64
2023-02-01T22:15:17.763Z,96669.31
2023-02-01T22:17:45.794Z,96670.30
2023-02-01T22:20:14.024Z,96671.23
2023-02-01T22:22:42.023Z,96668.19
2023-02-01T22:25:10.084Z,96672.52
2023-02-01T22:28:30.970Z,96666.95
2023-02-01T22:30:26.079Z,96670.23
2023-02-01T22:32:54.046Z,96670.46
2023-02-01T22:35:22.515Z,96666.36
2023-02-01T22:37:50.821Z,96670.51
2023-02-01T22:40:18.900Z,96668.36
2023-02-01T22:42:47.672Z,96665.25
2023-02-01T22:45:15.668Z,96668.27
2023-02-01T22:47:43.734Z,96671.77
2023-02-01T22:50:11.744Z,96669.35
2023-02-01T22:52:39.870Z,96662.23
2023-02-01T22:55:08.626Z,96661.27
2023-02-01T22:57:36.744Z,96661.33
2023-02-01T23:00:06.632Z,96667.14
2023-02-01T23:02:35.318Z,96666.05
2023-02-01T23:05:04.233Z,96668.98
2023-02-01T23:07:32.309Z,96666.79
2023-02-01T23:10:01.924Z,96666.61
2023-02-01T23:12:30.001Z,96668.34
2023-02-01T23:15:08.008Z,96666.71
2023-02-01T23:17:37.218Z,96670.27
2023-02-01T23:20:14.902Z,96666.79
2023-02-01T23:22:47.851Z,96667.23
2023-02-01T23:25:18.223Z,96673.25
2023-02-01T23:27:47.413Z,96664.05
2023-02-01T23:30:16.731Z,96667.14
2023-02-01T23:32:44.894Z,96667.78
2023-02-01T23:35:12.966Z,96663.02
2023-02-01T23:37:40.996Z,96660.61
2023-02-01T23:40:10.204Z,96660.42
2023-02-01T23:42:38.600Z,96654.58
2023-02-01T23:45:07.338Z,96647.94
2023-02-01T23:47:35.282Z,96649.13
2023-02-01T23:50:03.375Z,96651.65
2023-02-01T23:52:31.459Z,96649.02
2023-02-01T23:54:59.633Z,96648.81
2023-02-01T23:57:27.595Z,96650.48
2023-02-01T23:59:55.683Z,96650.77
